sim
Sign-in with your pilot id or email,
or register
Callsign
Passwort

Schedule Details

Flight Number: OEO4890
Departure: Erfurt Airport (EDDE) at 04:30
Arrival: Fuerteventura Airport (GCFV) at 09:25

Weather Information
Getting current METAR information for EDDE 192150Z 06004KT CAVOK 14/01 Q1030
Getting current METAR information for GCFV 192200Z AUTO 36015KT 9999 FEW030 BKN045 18/12 Q1018

Schedule Frequency

Route Map